sensor_id;sensor_type;location;lat;lon;timestamp;P1;durP1;ratioP1;P2;durP2;ratioP2
67074;SDS011;53990;50.334;18.640;2022-11-25T00:01:10;138.80;;;71.30;;
67074;SDS011;53990;50.334;18.640;2022-11-25T00:03:39;136.10;;;69.40;;
67074;SDS011;53990;50.334;18.640;2022-11-25T00:06:12;128.60;;;68.50;;
67074;SDS011;53990;50.334;18.640;2022-11-25T00:08:41;135.70;;;68.90;;
67074;SDS011;53990;50.334;18.640;2022-11-25T00:11:09;131.50;;;64.30;;
67074;SDS011;53990;50.334;18.640;2022-11-25T00:13:37;131.50;;;68.60;;
67074;SDS011;53990;50.334;18.640;2022-11-25T00:16:07;132.50;;;67.30;;
67074;SDS011;53990;50.334;18.640;2022-11-25T00:18:35;127.30;;;64.30;;
67074;SDS011;53990;50.334;18.640;2022-11-25T00:21:07;138.20;;;69.60;;
67074;SDS011;53990;50.334;18.640;2022-11-25T00:23:36;139.90;;;70.40;;
67074;SDS011;53990;50.334;18.640;2022-11-25T00:28:37;134.50;;;69.10;;
67074;SDS011;53990;50.334;18.640;2022-11-25T00:31:10;138.60;;;69.80;;
67074;SDS011;53990;50.334;18.640;2022-11-25T00:33:42;129.80;;;69.30;;
67074;SDS011;53990;50.334;18.640;2022-11-25T00:36:16;127.70;;;65.20;;
67074;SDS011;53990;50.334;18.640;2022-11-25T00:38:52;133.30;;;66.20;;
67074;SDS011;53990;50.334;18.640;2022-11-25T00:41:45;133.80;;;68.40;;
67074;SDS011;53990;50.334;18.640;2022-11-25T00:44:31;131.70;;;67.60;;
67074;SDS011;53990;50.334;18.640;2022-11-25T00:49:34;136.10;;;67.50;;
67074;SDS011;53990;50.334;18.640;2022-11-25T00:52:02;135.50;;;68.30;;
67074;SDS011;53990;50.334;18.640;2022-11-25T00:54:30;128.60;;;69.10;;
67074;SDS011;53990;50.334;18.640;2022-11-25T00:56:58;135.10;;;68.30;;
67074;SDS011;53990;50.334;18.640;2022-11-25T00:59:25;133.10;;;67.60;;
67074;SDS011;53990;50.334;18.640;2022-11-25T01:01:53;133.50;;;67.90;;
67074;SDS011;53990;50.334;18.640;2022-11-25T01:04:20;131.50;;;67.80;;
67074;SDS011;53990;50.334;18.640;2022-11-25T01:06:47;125.00;;;67.30;;
67074;SDS011;53990;50.334;18.640;2022-11-25T01:09:15;129.50;;;67.50;;
67074;SDS011;53990;50.334;18.640;2022-11-25T01:11:42;132.60;;;67.00;;
67074;SDS011;53990;50.334;18.640;2022-11-25T01:14:10;127.30;;;65.60;;
67074;SDS011;53990;50.334;18.640;2022-11-25T01:16:37;128.20;;;63.30;;
67074;SDS011;53990;50.334;18.640;2022-11-25T01:19:04;120.50;;;61.40;;
67074;SDS011;53990;50.334;18.640;2022-11-25T01:21:33;111.80;;;59.40;;
67074;SDS011;53990;50.334;18.640;2022-11-25T01:24:03;122.20;;;61.00;;
67074;SDS011;53990;50.334;18.640;2022-11-25T01:26:31;119.10;;;64.10;;
67074;SDS011;53990;50.334;18.640;2022-11-25T01:29:02;117.20;;;61.60;;
67074;SDS011;53990;50.334;18.640;2022-11-25T01:31:32;116.40;;;60.80;;
67074;SDS011;53990;50.334;18.640;2022-11-25T01:34:24;111.50;;;58.70;;
67074;SDS011;53990;50.334;18.640;2022-11-25T01:36:49;116.10;;;59.40;;
67074;SDS011;53990;50.334;18.640;2022-11-25T01:39:19;114.30;;;57.20;;
67074;SDS011;53990;50.334;18.640;2022-11-25T01:41:47;115.20;;;57.30;;
67074;SDS011;53990;50.334;18.640;2022-11-25T01:44:20;107.80;;;57.00;;
67074;SDS011;53990;50.334;18.640;2022-11-25T01:46:54;113.90;;;59.10;;
67074;SDS011;53990;50.334;18.640;2022-11-25T01:49:36;121.60;;;61.90;;
67074;SDS011;53990;50.334;18.640;2022-11-25T01:52:18;121.30;;;64.50;;
67074;SDS011;53990;50.334;18.640;2022-11-25T01:54:56;133.50;;;68.90;;
67074;SDS011;53990;50.334;18.640;2022-11-25T01:58:07;139.10;;;70.80;;
67074;SDS011;53990;50.334;18.640;2022-11-25T02:00:36;133.40;;;68.60;;
67074;SDS011;53990;50.334;18.640;2022-11-25T02:03:04;129.30;;;70.50;;
67074;SDS011;53990;50.334;18.640;2022-11-25T02:05:49;127.40;;;65.60;;
67074;SDS011;53990;50.334;18.640;2022-11-25T02:08:17;120.80;;;66.90;;
67074;SDS011;53990;50.334;18.640;2022-11-25T02:10:45;133.90;;;68.30;;
67074;SDS011;53990;50.334;18.640;2022-11-25T02:13:12;128.60;;;67.80;;
67074;SDS011;53990;50.334;18.640;2022-11-25T02:15:39;126.60;;;68.00;;
67074;SDS011;53990;50.334;18.640;2022-11-25T02:18:08;129.80;;;68.70;;
67074;SDS011;53990;50.334;18.640;2022-11-25T02:20:37;131.00;;;72.00;;
67074;SDS011;53990;50.334;18.640;2022-11-25T02:25:52;133.80;;;69.60;;
67074;SDS011;53990;50.334;18.640;2022-11-25T02:28:23;134.10;;;70.10;;
67074;SDS011;53990;50.334;18.640;2022-11-25T02:30:51;134.60;;;68.20;;
67074;SDS011;53990;50.334;18.640;2022-11-25T02:33:19;122.20;;;66.00;;
67074;SDS011;53990;50.334;18.640;2022-11-25T02:35:49;125.80;;;66.50;;
67074;SDS011;53990;50.334;18.640;2022-11-25T02:38:23;122.30;;;65.80;;
67074;SDS011;53990;50.334;18.640;2022-11-25T02:40:58;123.30;;;67.30;;
67074;SDS011;53990;50.334;18.640;2022-11-25T02:43:28;132.80;;;68.70;;
67074;SDS011;53990;50.334;18.640;2022-11-25T02:48:23;133.60;;;67.30;;
67074;SDS011;53990;50.334;18.640;2022-11-25T02:50:51;129.60;;;68.00;;
67074;SDS011;53990;50.334;18.640;2022-11-25T02:53:19;124.10;;;66.00;;
67074;SDS011;53990;50.334;18.640;2022-11-25T02:55:46;125.00;;;64.70;;
67074;SDS011;53990;50.334;18.640;2022-11-25T02:58:14;130.60;;;69.20;;
67074;SDS011;53990;50.334;18.640;2022-11-25T03:00:42;127.90;;;68.10;;
67074;SDS011;53990;50.334;18.640;2022-11-25T03:03:11;127.10;;;66.70;;
67074;SDS011;53990;50.334;18.640;2022-11-25T03:05:38;116.00;;;64.80;;
67074;SDS011;53990;50.334;18.640;2022-11-25T03:08:06;123.60;;;64.00;;
67074;SDS011;53990;50.334;18.640;2022-11-25T03:10:34;117.90;;;62.20;;
67074;SDS011;53990;50.334;18.640;2022-11-25T03:13:02;131.70;;;68.00;;
67074;SDS011;53990;50.334;18.640;2022-11-25T03:15:30;123.50;;;68.20;;
67074;SDS011;53990;50.334;18.640;2022-11-25T03:17:57;125.40;;;67.20;;
67074;SDS011;53990;50.334;18.640;2022-11-25T03:20:24;119.00;;;65.20;;
67074;SDS011;53990;50.334;18.640;2022-11-25T03:22:52;121.90;;;65.80;;
67074;SDS011;53990;50.334;18.640;2022-11-25T03:25:19;124.90;;;65.70;;
67074;SDS011;53990;50.334;18.640;2022-11-25T03:27:47;123.00;;;65.70;;
67074;SDS011;53990;50.334;18.640;2022-11-25T03:30:19;132.50;;;70.60;;
67074;SDS011;53990;50.334;18.640;2022-11-25T03:32:48;138.40;;;74.20;;
67074;SDS011;53990;50.334;18.640;2022-11-25T03:35:15;135.30;;;73.60;;
67074;SDS011;53990;50.334;18.640;2022-11-25T03:37:44;119.20;;;62.60;;
67074;SDS011;53990;50.334;18.640;2022-11-25T03:40:13;126.90;;;68.20;;
67074;SDS011;53990;50.334;18.640;2022-11-25T03:42:41;132.30;;;70.40;;
67074;SDS011;53990;50.334;18.640;2022-11-25T03:45:10;147.60;;;78.50;;
67074;SDS011;53990;50.334;18.640;2022-11-25T03:47:42;138.10;;;76.80;;
67074;SDS011;53990;50.334;18.640;2022-11-25T03:50:13;137.90;;;76.70;;
67074;SDS011;53990;50.334;18.640;2022-11-25T03:52:41;138.90;;;75.30;;
67074;SDS011;53990;50.334;18.640;2022-11-25T03:55:08;136.40;;;73.30;;
67074;SDS011;53990;50.334;18.640;2022-11-25T03:57:36;135.90;;;72.80;;
67074;SDS011;53990;50.334;18.640;2022-11-25T04:00:03;134.80;;;72.60;;
67074;SDS011;53990;50.334;18.640;2022-11-25T04:02:31;132.00;;;68.60;;
67074;SDS011;53990;50.334;18.640;2022-11-25T04:04:58;131.80;;;69.30;;
67074;SDS011;53990;50.334;18.640;2022-11-25T04:07:25;123.30;;;66.10;;
67074;SDS011;53990;50.334;18.640;2022-11-25T04:09:53;120.20;;;66.50;;
67074;SDS011;53990;50.334;18.640;2022-11-25T04:12:20;125.00;;;67.50;;
67074;SDS011;53990;50.334;18.640;2022-11-25T04:15:06;120.90;;;67.20;;
67074;SDS011;53990;50.334;18.640;2022-11-25T04:17:33;121.30;;;64.60;;
67074;SDS011;53990;50.334;18.640;2022-11-25T04:20:01;119.80;;;64.00;;
67074;SDS011;53990;50.334;18.640;2022-11-25T04:22:28;117.20;;;62.90;;
67074;SDS011;53990;50.334;18.640;2022-11-25T04:24:55;121.10;;;67.30;;
67074;SDS011;53990;50.334;18.640;2022-11-25T04:27:23;130.10;;;68.10;;
67074;SDS011;53990;50.334;18.640;2022-11-25T04:29:52;135.00;;;70.80;;
67074;SDS011;53990;50.334;18.640;2022-11-25T04:32:19;130.10;;;69.20;;
67074;SDS011;53990;50.334;18.640;2022-11-25T04:34:47;122.00;;;65.00;;
67074;SDS011;53990;50.334;18.640;2022-11-25T04:37:14;116.20;;;63.80;;
67074;SDS011;53990;50.334;18.640;2022-11-25T04:39:41;108.70;;;60.50;;
67074;SDS011;53990;50.334;18.640;2022-11-25T04:42:08;117.40;;;62.10;;
67074;SDS011;53990;50.334;18.640;2022-11-25T04:44:54;119.30;;;63.10;;
67074;SDS011;53990;50.334;18.640;2022-11-25T04:47:22;118.30;;;63.90;;
67074;SDS011;53990;50.334;18.640;2022-11-25T04:49:49;113.90;;;61.30;;
67074;SDS011;53990;50.334;18.640;2022-11-25T04:52:16;119.00;;;65.00;;
67074;SDS011;53990;50.334;18.640;2022-11-25T04:54:44;119.90;;;63.60;;
67074;SDS011;53990;50.334;18.640;2022-11-25T04:57:13;122.30;;;63.10;;
67074;SDS011;53990;50.334;18.640;2022-11-25T04:59:41;122.50;;;63.00;;
67074;SDS011;53990;50.334;18.640;2022-11-25T05:02:19;120.10;;;63.10;;
67074;SDS011;53990;50.334;18.640;2022-11-25T05:04:49;122.60;;;65.20;;
67074;SDS011;53990;50.334;18.640;2022-11-25T05:07:18;124.40;;;65.10;;
67074;SDS011;53990;50.334;18.640;2022-11-25T05:09:46;118.50;;;61.00;;
67074;SDS011;53990;50.334;18.640;2022-11-25T05:12:18;113.90;;;61.30;;
67074;SDS011;53990;50.334;18.640;2022-11-25T05:14:46;112.80;;;60.80;;
67074;SDS011;53990;50.334;18.640;2022-11-25T05:17:16;112.30;;;62.40;;
67074;SDS011;53990;50.334;18.640;2022-11-25T05:20:09;123.90;;;66.80;;
67074;SDS011;53990;50.334;18.640;2022-11-25T05:22:36;121.70;;;63.90;;
67074;SDS011;53990;50.334;18.640;2022-11-25T05:25:04;121.80;;;64.60;;
67074;SDS011;53990;50.334;18.640;2022-11-25T05:27:34;118.50;;;64.80;;
67074;SDS011;53990;50.334;18.640;2022-11-25T05:30:01;131.10;;;67.70;;
67074;SDS011;53990;50.334;18.640;2022-11-25T05:32:28;126.80;;;65.20;;
67074;SDS011;53990;50.334;18.640;2022-11-25T05:34:56;123.80;;;65.80;;
67074;SDS011;53990;50.334;18.640;2022-11-25T05:37:23;124.80;;;67.50;;
67074;SDS011;53990;50.334;18.640;2022-11-25T05:39:50;122.90;;;63.90;;
67074;SDS011;53990;50.334;18.640;2022-11-25T05:42:18;123.30;;;65.60;;
67074;SDS011;53990;50.334;18.640;2022-11-25T05:44:45;116.40;;;63.00;;
67074;SDS011;53990;50.334;18.640;2022-11-25T05:47:12;111.80;;;61.90;;
67074;SDS011;53990;50.334;18.640;2022-11-25T05:49:39;118.30;;;62.10;;
67074;SDS011;53990;50.334;18.640;2022-11-25T05:52:07;124.80;;;63.40;;
67074;SDS011;53990;50.334;18.640;2022-11-25T05:54:34;125.80;;;64.20;;
67074;SDS011;53990;50.334;18.640;2022-11-25T05:57:01;111.70;;;59.90;;
67074;SDS011;53990;50.334;18.640;2022-11-25T05:59:28;113.90;;;61.50;;
67074;SDS011;53990;50.334;18.640;2022-11-25T06:01:56;117.80;;;59.10;;
67074;SDS011;53990;50.334;18.640;2022-11-25T06:04:23;116.90;;;60.60;;
67074;SDS011;53990;50.334;18.640;2022-11-25T06:06:50;119.60;;;60.30;;
67074;SDS011;53990;50.334;18.640;2022-11-25T06:09:18;115.40;;;60.40;;
67074;SDS011;53990;50.334;18.640;2022-11-25T06:11:45;114.20;;;59.50;;
67074;SDS011;53990;50.334;18.640;2022-11-25T06:14:14;111.80;;;58.00;;
67074;SDS011;53990;50.334;18.640;2022-11-25T06:16:43;120.00;;;60.20;;
67074;SDS011;53990;50.334;18.640;2022-11-25T06:19:10;114.10;;;59.60;;
67074;SDS011;53990;50.334;18.640;2022-11-25T06:21:38;111.30;;;57.50;;
67074;SDS011;53990;50.334;18.640;2022-11-25T06:24:05;109.10;;;58.00;;
67074;SDS011;53990;50.334;18.640;2022-11-25T06:26:32;109.50;;;56.90;;
67074;SDS011;53990;50.334;18.640;2022-11-25T06:29:00;108.20;;;57.40;;
67074;SDS011;53990;50.334;18.640;2022-11-25T06:31:27;103.50;;;55.00;;
67074;SDS011;53990;50.334;18.640;2022-11-25T06:33:54;104.70;;;56.30;;
67074;SDS011;53990;50.334;18.640;2022-11-25T06:36:22;102.00;;;53.00;;
67074;SDS011;53990;50.334;18.640;2022-11-25T06:38:51;96.50;;;52.80;;
67074;SDS011;53990;50.334;18.640;2022-11-25T06:41:21;96.90;;;50.60;;
67074;SDS011;53990;50.334;18.640;2022-11-25T06:43:48;105.00;;;51.90;;
67074;SDS011;53990;50.334;18.640;2022-11-25T06:46:17;99.00;;;54.60;;
67074;SDS011;53990;50.334;18.640;2022-11-25T06:48:44;105.90;;;56.90;;
67074;SDS011;53990;50.334;18.640;2022-11-25T06:51:15;103.50;;;55.40;;
67074;SDS011;53990;50.334;18.640;2022-11-25T06:53:43;106.00;;;53.10;;
67074;SDS011;53990;50.334;18.640;2022-11-25T06:56:18;101.90;;;54.40;;
67074;SDS011;53990;50.334;18.640;2022-11-25T06:58:48;105.20;;;55.90;;
67074;SDS011;53990;50.334;18.640;2022-11-25T07:01:23;94.50;;;52.20;;
67074;SDS011;53990;50.334;18.640;2022-11-25T07:03:53;96.30;;;52.40;;
67074;SDS011;53990;50.334;18.640;2022-11-25T07:06:21;96.10;;;51.60;;
67074;SDS011;53990;50.334;18.640;2022-11-25T07:08:49;102.80;;;54.80;;
67074;SDS011;53990;50.334;18.640;2022-11-25T07:11:18;98.00;;;54.80;;
67074;SDS011;53990;50.334;18.640;2022-11-25T07:13:46;94.80;;;50.10;;
67074;SDS011;53990;50.334;18.640;2022-11-25T07:16:14;103.10;;;55.30;;
67074;SDS011;53990;50.334;18.640;2022-11-25T07:18:41;99.80;;;54.00;;
67074;SDS011;53990;50.334;18.640;2022-11-25T07:21:17;102.20;;;54.80;;
67074;SDS011;53990;50.334;18.640;2022-11-25T07:23:45;93.90;;;51.70;;
67074;SDS011;53990;50.334;18.640;2022-11-25T07:26:15;94.40;;;51.40;;
67074;SDS011;53990;50.334;18.640;2022-11-25T07:28:44;96.20;;;51.60;;
67074;SDS011;53990;50.334;18.640;2022-11-25T07:31:17;95.10;;;53.20;;
67074;SDS011;53990;50.334;18.640;2022-11-25T07:33:44;97.60;;;53.20;;
67074;SDS011;53990;50.334;18.640;2022-11-25T07:36:13;94.30;;;54.00;;
67074;SDS011;53990;50.334;18.640;2022-11-25T07:38:41;94.60;;;52.30;;
67074;SDS011;53990;50.334;18.640;2022-11-25T07:41:14;97.00;;;51.10;;
67074;SDS011;53990;50.334;18.640;2022-11-25T07:43:46;87.10;;;47.20;;
67074;SDS011;53990;50.334;18.640;2022-11-25T07:46:17;85.70;;;46.50;;
67074;SDS011;53990;50.334;18.640;2022-11-25T07:48:45;85.80;;;46.90;;
67074;SDS011;53990;50.334;18.640;2022-11-25T07:51:23;80.30;;;46.00;;
67074;SDS011;53990;50.334;18.640;2022-11-25T07:53:52;78.50;;;45.50;;
67074;SDS011;53990;50.334;18.640;2022-11-25T07:56:20;76.00;;;43.70;;
67074;SDS011;53990;50.334;18.640;2022-11-25T07:59:14;76.10;;;41.90;;
67074;SDS011;53990;50.334;18.640;2022-11-25T08:01:43;79.10;;;43.40;;
67074;SDS011;53990;50.334;18.640;2022-11-25T08:04:12;92.40;;;49.00;;
67074;SDS011;53990;50.334;18.640;2022-11-25T08:06:43;88.00;;;48.00;;
67074;SDS011;53990;50.334;18.640;2022-11-25T08:09:16;87.40;;;49.00;;
67074;SDS011;53990;50.334;18.640;2022-11-25T08:11:56;90.40;;;49.80;;
67074;SDS011;53990;50.334;18.640;2022-11-25T08:14:28;86.20;;;48.70;;
67074;SDS011;53990;50.334;18.640;2022-11-25T08:16:59;88.70;;;48.80;;
67074;SDS011;53990;50.334;18.640;2022-11-25T08:19:28;88.50;;;49.90;;
67074;SDS011;53990;50.334;18.640;2022-11-25T08:21:58;87.80;;;49.90;;
67074;SDS011;53990;50.334;18.640;2022-11-25T08:24:27;91.10;;;51.90;;
67074;SDS011;53990;50.334;18.640;2022-11-25T08:26:54;93.00;;;52.90;;
67074;SDS011;53990;50.334;18.640;2022-11-25T08:29:26;100.60;;;54.80;;
67074;SDS011;53990;50.334;18.640;2022-11-25T08:31:56;96.60;;;54.00;;
67074;SDS011;53990;50.334;18.640;2022-11-25T08:34:27;99.30;;;53.80;;
67074;SDS011;53990;50.334;18.640;2022-11-25T08:36:59;96.60;;;51.10;;
67074;SDS011;53990;50.334;18.640;2022-11-25T08:40:50;96.10;;;53.50;;
67074;SDS011;53990;50.334;18.640;2022-11-25T08:43:42;100.00;;;54.80;;
67074;SDS011;53990;50.334;18.640;2022-11-25T08:46:15;101.70;;;54.80;;
67074;SDS011;53990;50.334;18.640;2022-11-25T08:48:48;97.70;;;54.40;;
67074;SDS011;53990;50.334;18.640;2022-11-25T08:51:40;92.90;;;51.70;;
67074;SDS011;53990;50.334;18.640;2022-11-25T08:54:11;88.50;;;47.60;;
67074;SDS011;53990;50.334;18.640;2022-11-25T08:57:02;87.70;;;48.50;;
67074;SDS011;53990;50.334;18.640;2022-11-25T08:59:30;76.90;;;41.80;;
67074;SDS011;53990;50.334;18.640;2022-11-25T09:01:57;76.40;;;43.20;;
67074;SDS011;53990;50.334;18.640;2022-11-25T09:04:28;89.50;;;47.90;;
67074;SDS011;53990;50.334;18.640;2022-11-25T09:06:59;86.00;;;47.90;;
67074;SDS011;53990;50.334;18.640;2022-11-25T09:09:31;86.80;;;48.10;;
67074;SDS011;53990;50.334;18.640;2022-11-25T09:11:58;88.60;;;48.50;;
67074;SDS011;53990;50.334;18.640;2022-11-25T09:14:29;92.10;;;50.60;;
67074;SDS011;53990;50.334;18.640;2022-11-25T09:16:57;88.20;;;48.70;;
67074;SDS011;53990;50.334;18.640;2022-11-25T09:19:24;91.20;;;51.50;;
67074;SDS011;53990;50.334;18.640;2022-11-25T09:21:51;90.90;;;51.10;;
67074;SDS011;53990;50.334;18.640;2022-11-25T09:24:19;84.60;;;48.80;;
67074;SDS011;53990;50.334;18.640;2022-11-25T09:26:46;77.60;;;44.40;;
67074;SDS011;53990;50.334;18.640;2022-11-25T09:29:15;77.10;;;44.50;;
67074;SDS011;53990;50.334;18.640;2022-11-25T09:31:42;80.20;;;43.50;;
67074;SDS011;53990;50.334;18.640;2022-11-25T09:34:10;78.30;;;44.50;;
67074;SDS011;53990;50.334;18.640;2022-11-25T09:36:37;78.80;;;45.40;;
67074;SDS011;53990;50.334;18.640;2022-11-25T09:39:04;77.60;;;42.60;;
67074;SDS011;53990;50.334;18.640;2022-11-25T09:55:21;69.00;;;38.90;;
67074;SDS011;53990;50.334;18.640;2022-11-25T10:00:39;74.40;;;38.80;;
67074;SDS011;53990;50.334;18.640;2022-11-25T10:08:21;62.30;;;37.50;;
67074;SDS011;53990;50.334;18.640;2022-11-25T10:10:57;65.50;;;37.60;;
67074;SDS011;53990;50.334;18.640;2022-11-25T10:14:00;64.30;;;38.30;;
67074;SDS011;53990;50.334;18.640;2022-11-25T10:16:33;70.50;;;38.00;;
67074;SDS011;53990;50.334;18.640;2022-11-25T10:21:43;70.50;;;39.50;;
67074;SDS011;53990;50.334;18.640;2022-11-25T10:24:14;65.90;;;38.20;;
67074;SDS011;53990;50.334;18.640;2022-11-25T10:26:47;71.70;;;41.80;;
67074;SDS011;53990;50.334;18.640;2022-11-25T10:29:30;69.70;;;39.90;;
67074;SDS011;53990;50.334;18.640;2022-11-25T10:32:10;67.60;;;40.10;;
67074;SDS011;53990;50.334;18.640;2022-11-25T10:34:45;67.40;;;39.50;;
67074;SDS011;53990;50.334;18.640;2022-11-25T10:37:30;72.60;;;42.50;;
67074;SDS011;53990;50.334;18.640;2022-11-25T10:40:00;73.10;;;41.40;;
67074;SDS011;53990;50.334;18.640;2022-11-25T10:42:27;74.50;;;42.60;;
67074;SDS011;53990;50.334;18.640;2022-11-25T10:44:55;76.00;;;43.20;;
67074;SDS011;53990;50.334;18.640;2022-11-25T10:55:13;72.90;;;40.70;;
67074;SDS011;53990;50.334;18.640;2022-11-25T10:57:41;73.70;;;41.60;;
67074;SDS011;53990;50.334;18.640;2022-11-25T11:02:52;69.80;;;41.60;;
67074;SDS011;53990;50.334;18.640;2022-11-25T11:05:28;65.20;;;38.70;;
67074;SDS011;53990;50.334;18.640;2022-11-25T11:08:08;61.70;;;37.60;;
67074;SDS011;53990;50.334;18.640;2022-11-25T11:10:37;54.70;;;32.70;;
67074;SDS011;53990;50.334;18.640;2022-11-25T11:13:19;59.10;;;33.90;;
67074;SDS011;53990;50.334;18.640;2022-11-25T11:15:47;54.30;;;31.90;;
67074;SDS011;53990;50.334;18.640;2022-11-25T11:20:50;51.50;;;32.20;;
67074;SDS011;53990;50.334;18.640;2022-11-25T11:23:17;51.60;;;32.30;;
67074;SDS011;53990;50.334;18.640;2022-11-25T11:26:05;54.80;;;33.10;;
67074;SDS011;53990;50.334;18.640;2022-11-25T11:31:19;57.20;;;32.40;;
67074;SDS011;53990;50.334;18.640;2022-11-25T11:34:12;50.60;;;32.70;;
67074;SDS011;53990;50.334;18.640;2022-11-25T11:37:14;51.60;;;32.30;;
67074;SDS011;53990;50.334;18.640;2022-11-25T11:48:40;46.50;;;28.10;;
67074;SDS011;53990;50.334;18.640;2022-11-25T12:10:04;57.50;;;34.70;;
67074;SDS011;53990;50.334;18.640;2022-11-25T12:12:37;51.70;;;31.30;;
67074;SDS011;53990;50.334;18.640;2022-11-25T12:15:16;48.80;;;29.40;;
67074;SDS011;53990;50.334;18.640;2022-11-25T12:18:17;49.20;;;29.90;;
67074;SDS011;53990;50.334;18.640;2022-11-25T12:21:00;49.70;;;30.50;;
67074;SDS011;53990;50.334;18.640;2022-11-25T12:23:52;51.90;;;29.60;;
67074;SDS011;53990;50.334;18.640;2022-11-25T12:26:28;51.50;;;29.60;;
67074;SDS011;53990;50.334;18.640;2022-11-25T12:29:04;46.60;;;28.80;;
67074;SDS011;53990;50.334;18.640;2022-11-25T12:35:00;49.20;;;28.40;;
67074;SDS011;53990;50.334;18.640;2022-11-25T12:38:01;46.50;;;28.70;;
67074;SDS011;53990;50.334;18.640;2022-11-25T12:40:53;48.60;;;28.00;;
67074;SDS011;53990;50.334;18.640;2022-11-25T12:48:44;41.10;;;26.20;;
67074;SDS011;53990;50.334;18.640;2022-11-25T12:56:22;42.10;;;26.20;;
67074;SDS011;53990;50.334;18.640;2022-11-25T13:01:45;47.10;;;27.60;;
67074;SDS011;53990;50.334;18.640;2022-11-25T13:15:30;44.80;;;27.80;;
67074;SDS011;53990;50.334;18.640;2022-11-25T13:18:02;49.80;;;29.50;;
67074;SDS011;53990;50.334;18.640;2022-11-25T13:25:32;48.70;;;30.20;;
67074;SDS011;53990;50.334;18.640;2022-11-25T13:28:01;44.30;;;28.40;;
67074;SDS011;53990;50.334;18.640;2022-11-25T13:30:35;46.60;;;28.00;;
67074;SDS011;53990;50.334;18.640;2022-11-25T13:35:47;45.70;;;27.00;;
67074;SDS011;53990;50.334;18.640;2022-11-25T13:38:35;48.10;;;28.20;;
67074;SDS011;53990;50.334;18.640;2022-11-25T13:41:19;48.80;;;27.20;;
67074;SDS011;53990;50.334;18.640;2022-11-25T13:46:29;45.60;;;26.20;;
67074;SDS011;53990;50.334;18.640;2022-11-25T13:49:05;43.30;;;26.10;;
67074;SDS011;53990;50.334;18.640;2022-11-25T13:51:33;43.00;;;26.30;;
67074;SDS011;53990;50.334;18.640;2022-11-25T13:54:03;45.70;;;26.20;;
67074;SDS011;53990;50.334;18.640;2022-11-25T13:56:36;43.90;;;25.10;;
67074;SDS011;53990;50.334;18.640;2022-11-25T14:01:51;39.60;;;22.80;;
67074;SDS011;53990;50.334;18.640;2022-11-25T14:04:40;43.20;;;22.20;;
67074;SDS011;53990;50.334;18.640;2022-11-25T14:07:25;43.20;;;22.90;;
67074;SDS011;53990;50.334;18.640;2022-11-25T14:13:31;40.70;;;22.00;;
67074;SDS011;53990;50.334;18.640;2022-11-25T14:19:18;39.30;;;22.50;;
67074;SDS011;53990;50.334;18.640;2022-11-25T14:22:01;39.50;;;22.20;;
67074;SDS011;53990;50.334;18.640;2022-11-25T14:24:40;40.50;;;22.00;;
67074;SDS011;53990;50.334;18.640;2022-11-25T14:27:28;42.20;;;24.50;;
67074;SDS011;53990;50.334;18.640;2022-11-25T14:30:04;41.60;;;23.00;;
67074;SDS011;53990;50.334;18.640;2022-11-25T14:32:41;40.90;;;23.70;;
67074;SDS011;53990;50.334;18.640;2022-11-25T14:35:17;36.80;;;22.60;;
67074;SDS011;53990;50.334;18.640;2022-11-25T14:37:59;39.60;;;23.60;;
67074;SDS011;53990;50.334;18.640;2022-11-25T14:40:57;45.30;;;23.80;;
67074;SDS011;53990;50.334;18.640;2022-11-25T14:43:23;43.20;;;23.60;;
67074;SDS011;53990;50.334;18.640;2022-11-25T14:46:12;41.40;;;23.60;;
67074;SDS011;53990;50.334;18.640;2022-11-25T14:48:43;42.20;;;23.90;;
67074;SDS011;53990;50.334;18.640;2022-11-25T14:51:12;43.00;;;24.20;;
67074;SDS011;53990;50.334;18.640;2022-11-25T14:53:47;40.50;;;22.60;;
67074;SDS011;53990;50.334;18.640;2022-11-25T14:56:34;42.70;;;24.60;;
67074;SDS011;53990;50.334;18.640;2022-11-25T14:59:07;40.30;;;24.20;;
67074;SDS011;53990;50.334;18.640;2022-11-25T15:01:37;47.30;;;25.00;;
67074;SDS011;53990;50.334;18.640;2022-11-25T15:04:14;44.30;;;25.20;;
67074;SDS011;53990;50.334;18.640;2022-11-25T15:06:54;45.30;;;26.00;;
67074;SDS011;53990;50.334;18.640;2022-11-25T15:09:29;41.90;;;24.70;;
67074;SDS011;53990;50.334;18.640;2022-11-25T15:12:06;42.80;;;24.70;;
67074;SDS011;53990;50.334;18.640;2022-11-25T15:14:42;46.30;;;25.60;;
67074;SDS011;53990;50.334;18.640;2022-11-25T15:17:30;41.40;;;24.20;;
67074;SDS011;53990;50.334;18.640;2022-11-25T15:20:01;45.00;;;25.10;;
67074;SDS011;53990;50.334;18.640;2022-11-25T15:22:29;46.00;;;25.20;;
67074;SDS011;53990;50.334;18.640;2022-11-25T15:25:08;41.60;;;24.80;;
67074;SDS011;53990;50.334;18.640;2022-11-25T15:27:43;42.00;;;23.80;;
67074;SDS011;53990;50.334;18.640;2022-11-25T15:30:25;40.90;;;24.30;;
67074;SDS011;53990;50.334;18.640;2022-11-25T15:32:54;44.50;;;26.20;;
67074;SDS011;53990;50.334;18.640;2022-11-25T15:35:25;42.30;;;25.30;;
67074;SDS011;53990;50.334;18.640;2022-11-25T15:37:52;45.50;;;25.90;;
67074;SDS011;53990;50.334;18.640;2022-11-25T15:40:35;45.20;;;26.60;;
67074;SDS011;53990;50.334;18.640;2022-11-25T15:43:06;46.30;;;25.20;;
67074;SDS011;53990;50.334;18.640;2022-11-25T15:45:43;47.60;;;26.40;;
67074;SDS011;53990;50.334;18.640;2022-11-25T15:48:31;51.70;;;28.60;;
67074;SDS011;53990;50.334;18.640;2022-11-25T15:51:02;51.50;;;27.90;;
67074;SDS011;53990;50.334;18.640;2022-11-25T15:53:31;45.90;;;26.80;;
67074;SDS011;53990;50.334;18.640;2022-11-25T15:56:08;52.40;;;28.70;;
67074;SDS011;53990;50.334;18.640;2022-11-25T15:58:40;47.50;;;28.90;;
67074;SDS011;53990;50.334;18.640;2022-11-25T16:03:43;48.20;;;28.50;;
67074;SDS011;53990;50.334;18.640;2022-11-25T16:06:25;54.30;;;30.80;;
67074;SDS011;53990;50.334;18.640;2022-11-25T16:09:01;56.00;;;31.70;;
67074;SDS011;53990;50.334;18.640;2022-11-25T16:11:43;53.20;;;32.10;;
67074;SDS011;53990;50.334;18.640;2022-11-25T16:16:49;57.90;;;32.80;;
67074;SDS011;53990;50.334;18.640;2022-11-25T16:19:22;53.00;;;30.10;;
67074;SDS011;53990;50.334;18.640;2022-11-25T16:21:59;55.80;;;33.40;;
67074;SDS011;53990;50.334;18.640;2022-11-25T16:24:35;71.30;;;39.70;;
67074;SDS011;53990;50.334;18.640;2022-11-25T16:27:25;69.60;;;40.20;;
67074;SDS011;53990;50.334;18.640;2022-11-25T16:32:36;72.30;;;41.20;;
67074;SDS011;53990;50.334;18.640;2022-11-25T16:35:14;69.10;;;39.30;;
67074;SDS011;53990;50.334;18.640;2022-11-25T16:37:42;67.50;;;40.20;;
67074;SDS011;53990;50.334;18.640;2022-11-25T16:40:15;78.30;;;43.50;;
67074;SDS011;53990;50.334;18.640;2022-11-25T16:42:49;85.80;;;48.90;;
67074;SDS011;53990;50.334;18.640;2022-11-25T16:45:24;88.40;;;50.00;;
67074;SDS011;53990;50.334;18.640;2022-11-25T16:47:53;78.20;;;47.00;;